Time;durP1;ratioP1;P1;durP2;ratioP2;P2;SDS_P1;SDS_P2;PMS_P1;PMS_P2;Temp;Humidity;BMP_temperature;BMP_pressure;BME280_temperature;BME280_humidity;BME280_pressure;Samples;Min_cycle;Max_cycle;Signal;HPM_P1;HPM_P2
2023/06/07 00:01:08;;;;;;;3.37;2.45;;;17.70;54.80;;;;;;964120;146;27274;-74
2023/06/07 00:03:34;;;;;;;2.55;2.35;;;17.70;54.70;;;;;;944566;148;27365;-74
2023/06/07 00:06:00;;;;;;;3.50;2.42;;;17.80;54.80;;;;;;947197;148;27354;-74
2023/06/07 00:08:30;;;;;;;2.40;2.20;;;17.80;54.70;;;;;;947610;148;27364;-74
2023/06/07 00:10:57;;;;;;;2.40;2.20;;;17.90;54.80;;;;;;942595;149;27379;-74
2023/06/07 00:13:23;;;;;;;2.50;2.30;;;17.90;54.70;;;;;;946542;149;27369;-74
2023/06/07 00:15:50;;;;;;;2.30;2.10;;;18.00;54.70;;;;;;957148;148;27315;-74
2023/06/07 00:18:19;;;;;;;2.70;2.50;;;18.10;54.70;;;;;;939902;148;27385;-74
2023/06/07 00:20:45;;;;;;;3.05;2.85;;;18.10;54.60;;;;;;939530;148;27265;-74
2023/06/07 00:23:10;;;;;;;2.45;2.30;;;18.20;54.70;;;;;;962642;145;27329;-74
2023/06/07 00:25:36;;;;;;;2.40;2.20;;;18.20;54.70;;;;;;946781;148;27423;-74
2023/06/07 00:28:03;;;;;;;2.95;2.60;;;18.30;54.80;;;;;;940340;150;27455;-74
2023/06/07 00:30:29;;;;;;;2.58;2.33;;;18.30;54.80;;;;;;965945;146;27323;-74
2023/06/07 00:32:56;;;;;;;2.58;2.37;;;18.40;54.80;;;;;;966039;146;27748;-74
2023/06/07 00:35:22;;;;;;;6.92;3.25;;;18.40;54.80;;;;;;967241;146;27411;-74
2023/06/07 00:37:49;;;;;;;3.02;2.40;;;18.40;54.80;;;;;;966217;146;27267;-74
2023/06/07 00:40:16;;;;;;;6.17;2.80;;;18.50;54.80;;;;;;965758;146;27419;-74
2023/06/07 00:42:42;;;;;;;2.62;2.42;;;18.50;54.70;;;;;;967629;145;27975;-74
2023/06/07 00:45:09;;;;;;;3.62;2.70;;;18.50;54.60;;;;;;968015;145;27302;-74
2023/06/07 00:47:35;;;;;;;2.72;2.45;;;18.60;54.60;;;;;;967867;145;27232;-74
2023/06/07 00:50:02;;;;;;;2.87;2.52;;;18.60;54.60;;;;;;968416;145;27400;-74
2023/06/07 00:52:29;;;;;;;3.02;2.80;;;18.70;54.60;;;;;;967537;145;27327;-74
2023/06/07 00:54:55;;;;;;;3.10;2.52;;;18.70;54.60;;;;;;967353;145;27295;-74
2023/06/07 00:57:22;;;;;;;4.55;2.70;;;18.70;54.60;;;;;;967608;145;27359;-74
2023/06/07 00:59:48;;;;;;;2.67;2.47;;;18.70;54.60;;;;;;967797;145;27256;-74
2023/06/07 01:02:15;;;;;;;2.90;2.70;;;18.70;54.60;;;;;;967754;145;27323;-74
2023/06/07 01:04:44;;;;;;;2.55;2.35;;;18.70;54.70;;;;;;968110;145;27841;-74
2023/06/07 01:07:11;;;;;;;4.35;2.52;;;18.80;54.90;;;;;;967426;145;27369;-74
2023/06/07 01:09:37;;;;;;;2.90;2.70;;;18.70;54.90;;;;;;967975;145;27416;-74
2023/06/07 01:12:05;;;;;;;3.55;2.70;;;18.70;54.90;;;;;;968093;145;27443;-74
2023/06/07 01:14:30;;;;;;;3.40;2.98;;;18.70;54.90;;;;;;967257;145;27263;-74
2023/06/07 01:16:57;;;;;;;2.72;2.52;;;18.80;55.00;;;;;;967901;145;27279;-76
2023/06/07 01:19:23;;;;;;;2.75;2.55;;;18.80;55.10;;;;;;967207;145;27323;-76
2023/06/07 01:21:54;;;;;;;3.00;2.67;;;18.80;55.20;;;;;;966817;145;27395;-76
2023/06/07 01:24:20;;;;;;;2.60;2.40;;;18.80;55.20;;;;;;967607;145;27776;-76
2023/06/07 01:26:46;;;;;;;2.70;2.50;;;18.80;55.30;;;;;;966875;145;27315;-76
2023/06/07 01:29:15;;;;;;;2.70;2.35;;;18.80;55.40;;;;;;968277;145;27232;-74
2023/06/07 01:31:39;;;;;;;2.12;2.02;;;18.80;55.50;;;;;;967508;145;27320;-74
2023/06/07 01:34:06;;;;;;;4.03;2.95;;;18.80;55.60;;;;;;968147;145;27806;-74
2023/06/07 01:36:32;;;;;;;2.87;2.42;;;18.80;55.70;;;;;;967707;145;27318;-74
2023/06/07 01:38:59;;;;;;;2.50;2.30;;;18.80;55.80;;;;;;968436;145;27313;-74
2023/06/07 01:41:25;;;;;;;3.00;2.75;;;18.80;55.80;;;;;;967192;145;27255;-74
2023/06/07 01:43:52;;;;;;;3.08;2.40;;;18.80;55.90;;;;;;967282;145;27321;-74
2023/06/07 01:46:19;;;;;;;2.75;2.55;;;18.80;55.90;;;;;;968136;145;27334;-74
2023/06/07 01:48:45;;;;;;;3.20;2.90;;;18.80;55.90;;;;;;968482;145;27344;-74
2023/06/07 01:51:12;;;;;;;2.60;2.40;;;18.80;56.00;;;;;;967746;145;27307;-74
2023/06/07 01:53:38;;;;;;;2.90;2.70;;;18.80;56.00;;;;;;967637;145;27325;-74
2023/06/07 01:56:08;;;;;;;3.50;2.90;;;18.80;55.90;;;;;;967786;145;27419;-74
2023/06/07 01:58:40;;;;;;;2.65;2.45;;;18.80;55.90;;;;;;966700;145;27311;-74
2023/06/07 02:01:14;;;;;;;3.25;2.60;;;18.90;55.90;;;;;;966119;145;27390;-76
2023/06/07 02:03:42;;;;;;;3.60;2.50;;;18.90;55.90;;;;;;967538;145;27425;-74
2023/06/07 02:06:08;;;;;;;4.53;2.40;;;18.90;55.80;;;;;;966849;145;27398;-74
2023/06/07 02:08:48;;;;;;;2.47;2.30;;;18.90;55.90;;;;;;967479;145;27307;-74
2023/06/07 02:11:13;;;;;;;2.83;2.62;;;18.90;55.90;;;;;;965132;145;27403;-74
2023/06/07 02:13:40;;;;;;;5.45;2.45;;;18.90;56.60;;;;;;967390;145;27275;-74
2023/06/07 02:16:07;;;;;;;3.15;2.90;;;18.90;56.00;;;;;;967145;145;27301;-74
2023/06/07 02:18:37;;;;;;;3.25;2.52;;;18.90;56.10;;;;;;967789;145;27278;-74
2023/06/07 02:21:00;;;;;;;3.75;2.47;;;18.90;56.00;;;;;;967613;145;27325;-74
2023/06/07 02:23:26;;;;;;;3.37;2.67;;;18.90;56.10;;;;;;967562;145;27364;-74
2023/06/07 02:25:53;;;;;;;2.60;2.40;;;18.90;56.10;;;;;;967426;145;27399;-74
2023/06/07 02:28:20;;;;;;;2.75;2.55;;;18.90;56.10;;;;;;968070;145;27299;-76
2023/06/07 02:30:46;;;;;;;3.50;3.00;;;18.90;56.20;;;;;;968327;145;27359;-76
2023/06/07 02:33:13;;;;;;;2.52;2.33;;;18.90;56.30;;;;;;968159;145;27335;-76
2023/06/07 02:35:45;;;;;;;2.75;2.47;;;18.90;56.80;;;;;;967717;145;27376;-76
2023/06/07 02:38:12;;;;;;;2.98;2.50;;;18.90;56.30;;;;;;967993;145;27283;-76
2023/06/07 02:40:38;;;;;;;2.70;2.50;;;18.90;56.40;;;;;;967592;145;27334;-76
2023/06/07 02:43:05;;;;;;;2.58;2.37;;;18.90;56.50;;;;;;964464;145;27447;-76
2023/06/07 02:45:31;;;;;;;2.90;2.70;;;18.90;56.50;;;;;;962600;146;27394;-74
2023/06/07 02:47:58;;;;;;;3.05;2.75;;;18.90;56.60;;;;;;962398;146;27730;-74
2023/06/07 02:50:25;;;;;;;2.98;2.77;;;18.90;56.70;;;;;;962313;146;27299;-74
2023/06/07 02:52:51;;;;;;;2.87;2.60;;;18.90;56.90;;;;;;962776;146;27401;-74
2023/06/07 02:55:18;;;;;;;2.83;2.62;;;18.90;57.00;;;;;;961974;146;27428;-74
2023/06/07 02:57:44;;;;;;;2.72;2.52;;;18.80;57.10;;;;;;962524;146;27289;-74
2023/06/07 03:00:11;;;;;;;2.80;2.60;;;18.80;57.20;;;;;;962834;146;27232;-74
2023/06/07 03:02:40;;;;;;;3.27;2.85;;;18.70;56.90;;;;;;962556;146;27283;-74
2023/06/07 03:05:07;;;;;;;3.15;2.95;;;18.70;57.40;;;;;;962873;146;27359;-74
2023/06/07 03:07:35;;;;;;;3.15;2.90;;;18.60;57.40;;;;;;963249;146;27265;-74
2023/06/07 03:10:00;;;;;;;2.55;2.35;;;18.60;57.50;;;;;;962388;146;27393;-74
2023/06/07 03:12:27;;;;;;;2.92;2.67;;;18.50;57.70;;;;;;962572;146;27310;-74
2023/06/07 03:14:53;;;;;;;2.77;2.58;;;18.50;57.80;;;;;;962901;146;27320;-74
2023/06/07 03:17:20;;;;;;;4.42;2.95;;;18.40;57.80;;;;;;962098;146;27454;-76
2023/06/07 03:19:46;;;;;;;3.80;3.05;;;18.40;58.00;;;;;;962547;146;27276;-74
2023/06/07 03:22:13;;;;;;;3.72;2.72;;;18.30;58.00;;;;;;962577;146;27288;-74
2023/06/07 03:24:40;;;;;;;3.00;2.80;;;18.30;58.10;;;;;;962517;146;27414;-74
2023/06/07 03:27:08;;;;;;;3.05;2.85;;;18.30;58.30;;;;;;962620;146;27818;-74
2023/06/07 03:29:33;;;;;;;3.05;2.85;;;18.30;58.40;;;;;;962719;146;27293;-74
2023/06/07 03:31:59;;;;;;;3.27;3.02;;;18.20;58.40;;;;;;961604;146;27285;-74
2023/06/07 03:34:29;;;;;;;3.20;2.90;;;18.20;58.60;;;;;;962647;146;27349;-74
2023/06/07 03:36:53;;;;;;;2.98;2.67;;;18.30;58.70;;;;;;962007;146;27292;-74
2023/06/07 03:39:19;;;;;;;3.05;2.85;;;18.20;58.70;;;;;;963116;146;27382;-74
2023/06/07 03:41:46;;;;;;;2.70;2.55;;;18.20;58.90;;;;;;962686;146;27251;-74
2023/06/07 03:44:12;;;;;;;3.10;2.80;;;18.20;59.00;;;;;;965182;146;27425;-74
2023/06/07 03:46:40;;;;;;;2.42;2.33;;;18.20;59.00;;;;;;965904;148;27312;-74
2023/06/07 03:49:05;;;;;;;4.35;2.87;;;18.30;59.20;;;;;;965777;145;27318;-74
2023/06/07 03:51:38;;;;;;;3.33;2.62;;;18.30;59.20;;;;;;965702;148;27443;-74
2023/06/07 03:54:01;;;;;;;5.22;2.77;;;18.30;59.30;;;;;;965007;148;27407;-74
2023/06/07 03:56:29;;;;;;;3.30;3.00;;;18.30;59.30;;;;;;965270;148;27260;-74
2023/06/07 03:58:55;;;;;;;3.27;2.98;;;18.30;59.40;;;;;;966233;145;27316;-74
2023/06/07 04:01:25;;;;;;;3.20;2.90;;;18.30;59.50;;;;;;965169;148;27347;-74
2023/06/07 04:03:48;;;;;;;3.52;3.00;;;18.40;59.50;;;;;;964818;148;27361;-74
2023/06/07 04:06:16;;;;;;;2.95;2.62;;;18.40;59.60;;;;;;965532;148;27364;-74
2023/06/07 04:08:41;;;;;;;4.10;3.72;;;18.40;59.60;;;;;;966250;145;27312;-74
2023/06/07 04:11:07;;;;;;;3.02;2.65;;;18.40;59.60;;;;;;965594;145;27440;-74
2023/06/07 04:13:34;;;;;;;3.27;2.98;;;18.50;59.70;;;;;;965422;148;27296;-74
2023/06/07 04:16:01;;;;;;;2.75;2.50;;;18.50;59.70;;;;;;965587;145;27251;-74
2023/06/07 04:18:27;;;;;;;3.25;2.92;;;18.50;59.70;;;;;;966000;148;27253;-74
2023/06/07 04:20:54;;;;;;;3.17;2.85;;;18.60;59.80;;;;;;965965;148;27408;-74
2023/06/07 04:23:21;;;;;;;3.45;3.17;;;18.60;59.80;;;;;;965747;148;27400;-74
2023/06/07 04:25:47;;;;;;;3.30;3.00;;;18.60;59.80;;;;;;965609;145;27328;-74
2023/06/07 04:28:14;;;;;;;3.02;2.80;;;18.70;59.80;;;;;;965545;145;27299;-74
2023/06/07 04:30:42;;;;;;;3.20;3.00;;;18.70;59.80;;;;;;965949;148;27373;-74
2023/06/07 04:33:09;;;;;;;3.35;3.05;;;18.70;59.90;;;;;;965123;148;27630;-74
2023/06/07 04:35:33;;;;;;;4.37;3.05;;;18.70;60.00;;;;;;965077;148;27229;-74
2023/06/07 04:38:01;;;;;;;3.42;3.12;;;18.80;60.00;;;;;;966303;145;27365;-74
2023/06/07 04:40:27;;;;;;;3.27;2.98;;;18.80;59.90;;;;;;966042;145;27296;-74
2023/06/07 04:43:04;;;;;;;3.75;2.90;;;18.90;60.00;;;;;;965949;145;27314;-74
2023/06/07 04:45:28;;;;;;;2.85;2.65;;;18.90;60.00;;;;;;963767;146;27431;-74
2023/06/07 04:47:49;;;;;;;2.98;2.77;;;19.00;60.00;;;;;;964586;145;27280;-74
2023/06/07 04:50:16;;;;;;;3.12;2.83;;;19.00;60.00;;;;;;965777;148;27559;-74
2023/06/07 04:52:43;;;;;;;3.10;2.90;;;19.10;60.00;;;;;;965735;148;27331;-74
2023/06/07 04:55:09;;;;;;;3.25;2.95;;;19.10;59.90;;;;;;965326;145;27330;-74
2023/06/07 04:57:35;;;;;;;3.17;2.70;;;19.20;60.00;;;;;;965881;145;27295;-74
2023/06/07 05:00:06;;;;;;;3.35;3.08;;;19.20;60.00;;;;;;965557;148;27233;-74
2023/06/07 05:02:29;;;;;;;3.00;2.80;;;19.30;60.00;;;;;;965353;145;27374;-74
2023/06/07 05:04:57;;;;;;;3.30;3.00;;;19.40;60.00;;;;;;965593;148;27409;-74
2023/06/07 05:07:22;;;;;;;3.72;3.42;;;19.40;60.00;;;;;;965085;148;27335;-77
2023/06/07 05:09:49;;;;;;;3.15;2.87;;;19.50;60.00;;;;;;966035;145;27273;-74
2023/06/07 05:12:15;;;;;;;3.10;2.80;;;19.60;59.90;;;;;;965752;148;27244;-74
2023/06/07 05:14:41;;;;;;;4.08;3.50;;;19.60;59.70;;;;;;965865;148;27327;-74
2023/06/07 05:17:08;;;;;;;2.80;2.60;;;19.70;59.60;;;;;;965744;145;28396;-74
2023/06/07 05:19:35;;;;;;;3.00;2.80;;;19.80;59.60;;;;;;965909;148;27265;-74
2023/06/07 05:22:01;;;;;;;2.90;2.70;;;19.90;59.60;;;;;;965716;145;27292;-74
2023/06/07 05:24:28;;;;;;;3.25;2.98;;;20.00;59.60;;;;;;965709;148;27316;-74
2023/06/07 05:26:54;;;;;;;2.87;2.67;;;20.10;59.60;;;;;;965527;148;27466;-74
2023/06/07 05:29:21;;;;;;;2.95;2.50;;;20.20;59.50;;;;;;965628;148;27283;-74
2023/06/07 05:31:48;;;;;;;2.75;2.50;;;20.40;59.60;;;;;;965498;148;27629;-74
2023/06/07 05:34:14;;;;;;;3.10;2.80;;;20.60;59.80;;;;;;965747;146;27280;-74
2023/06/07 05:36:42;;;;;;;2.60;2.40;;;20.80;59.80;;;;;;966116;145;27308;-75
2023/06/07 05:39:07;;;;;;;2.65;2.45;;;21.10;59.80;;;;;;932645;150;27360;-74
2023/06/07 05:41:34;;;;;;;2.83;2.52;;;21.50;60.00;;;;;;947668;148;27336;-74
2023/06/07 05:44:01;;;;;;;2.50;2.30;;;21.90;60.10;;;;;;947439;151;27378;-74
2023/06/07 05:46:27;;;;;;;2.55;2.40;;;22.40;59.80;;;;;;947625;151;27648;-74
2023/06/07 05:48:54;;;;;;;2.60;2.40;;;22.90;58.90;;;;;;947454;151;27361;-74
2023/06/07 05:51:20;;;;;;;2.67;2.40;;;23.30;58.10;;;;;;947322;151;27477;-74
2023/06/07 05:53:47;;;;;;;2.67;2.47;;;23.70;57.70;;;;;;947731;151;27334;-75
2023/06/07 05:56:16;;;;;;;4.83;2.83;;;24.10;57.60;;;;;;947096;151;27391;-75
2023/06/07 05:58:42;;;;;;;5.35;2.25;;;24.70;57.50;;;;;;947083;151;27263;-75
2023/06/07 06:01:10;;;;;;;2.70;2.50;;;25.20;57.20;;;;;;947525;151;27468;-75
2023/06/07 06:03:33;;;;;;;2.55;2.30;;;25.80;56.70;;;;;;946887;151;27439;-75
2023/06/07 06:06:00;;;;;;;2.35;2.15;;;26.40;55.70;;;;;;944790;149;27342;-75
2023/06/07 06:08:26;;;;;;;2.42;2.08;;;27.00;54.90;;;;;;954988;149;27706;-75
2023/06/07 06:10:53;;;;;;;2.30;2.10;;;27.40;53.90;;;;;;947562;151;27459;-75
2023/06/07 06:13:20;;;;;;;2.55;2.35;;;27.70;53.10;;;;;;947477;151;27454;-74
2023/06/07 06:15:46;;;;;;;2.95;2.40;;;28.00;52.30;;;;;;947529;151;27267;-75
2023/06/07 06:18:13;;;;;;;4.00;3.00;;;28.20;51.60;;;;;;947739;148;27309;-75
2023/06/07 06:20:39;;;;;;;2.72;2.52;;;28.30;50.70;;;;;;947790;151;27447;-75
2023/06/07 06:23:07;;;;;;;2.62;2.42;;;28.30;50.30;;;;;;946979;151;27447;-75
2023/06/07 06:25:33;;;;;;;3.00;2.47;;;28.20;49.90;;;;;;947022;150;27446;-75
2023/06/07 06:27:59;;;;;;;2.70;2.20;;;28.00;49.70;;;;;;940782;143;27489;-73
2023/06/07 06:30:27;;;;;;;2.87;2.65;;;27.90;49.60;;;;;;932409;150;27336;-76
2023/06/07 06:32:52;;;;;;;2.72;2.52;;;27.70;49.70;;;;;;931101;150;27382;-76
2023/06/07 06:35:19;;;;;;;2.60;2.40;;;27.50;49.60;;;;;;928576;150;27406;-76
2023/06/07 06:37:45;;;;;;;2.37;2.25;;;27.40;49.80;;;;;;930709;150;27401;-76
2023/06/07 06:40:12;;;;;;;4.50;2.30;;;27.30;50.10;;;;;;930512;150;27367;-76
2023/06/07 06:42:39;;;;;;;3.95;2.50;;;27.40;50.30;;;;;;929953;150;27379;-76
2023/06/07 06:45:06;;;;;;;3.10;2.60;;;27.40;50.50;;;;;;930658;150;27452;-76
2023/06/07 06:47:32;;;;;;;2.65;2.40;;;27.50;50.60;;;;;;931579;150;27500;-76
2023/06/07 06:50:00;;;;;;;2.08;1.87;;;27.60;50.30;;;;;;930432;150;27390;-76
2023/06/07 06:52:25;;;;;;;2.42;2.30;;;27.80;50.10;;;;;;929094;150;27356;-76
2023/06/07 06:54:52;;;;;;;2.25;2.10;;;27.90;49.70;;;;;;929213;150;27338;-76
2023/06/07 06:57:19;;;;;;;3.92;2.30;;;28.00;49.50;;;;;;928934;150;27334;-76
2023/06/07 06:59:45;;;;;;;3.50;2.20;;;28.10;49.20;;;;;;929944;150;27407;-76
2023/06/07 07:02:12;;;;;;;2.40;2.20;;;28.10;48.80;;;;;;928915;150;27500;-76
2023/06/07 07:04:38;;;;;;;3.12;2.37;;;28.00;48.60;;;;;;931358;150;27441;-76
2023/06/07 07:07:05;;;;;;;2.80;2.20;;;28.00;48.40;;;;;;929091;150;27418;-76
2023/06/07 07:09:32;;;;;;;2.42;2.22;;;27.90;48.30;;;;;;929589;150;27298;-76
2023/06/07 07:11:58;;;;;;;2.55;2.35;;;27.90;48.30;;;;;;929149;150;27404;-76
2023/06/07 07:14:25;;;;;;;2.08;1.98;;;27.80;48.40;;;;;;932503;150;27509;-76
2023/06/07 07:16:51;;;;;;;2.75;2.42;;;27.70;48.40;;;;;;931635;150;27363;-76
2023/06/07 07:19:18;;;;;;;2.25;2.10;;;27.70;48.70;;;;;;930202;150;27659;-76
2023/06/07 07:21:45;;;;;;;2.80;2.60;;;27.60;48.60;;;;;;928202;150;27479;-76
2023/06/07 07:24:11;;;;;;;2.50;2.30;;;27.60;48.50;;;;;;930267;150;27381;-76
2023/06/07 07:26:39;;;;;;;2.25;2.08;;;27.60;48.50;;;;;;930263;150;27322;-76
2023/06/07 07:29:04;;;;;;;3.37;3.10;;;27.70;48.60;;;;;;933845;148;27389;-76
2023/06/07 07:31:33;;;;;;;2.30;2.10;;;27.70;48.60;;;;;;941920;148;27298;-76
2023/06/07 07:33:57;;;;;;;2.52;2.33;;;27.80;48.70;;;;;;940751;148;27366;-76
2023/06/07 07:36:24;;;;;;;2.62;2.22;;;27.90;48.80;;;;;;939727;148;27272;-76
2023/06/07 07:38:51;;;;;;;2.37;1.98;;;28.00;48.90;;;;;;942684;148;27248;-76
2023/06/07 07:41:17;;;;;;;2.50;2.30;;;28.30;49.00;;;;;;939634;148;27233;-76
2023/06/07 07:43:44;;;;;;;2.35;2.15;;;28.70;49.60;;;;;;941103;148;27268;-76
2023/06/07 07:46:10;;;;;;;2.52;2.10;;;29.40;50.30;;;;;;940826;148;27431;-76
2023/06/07 07:48:37;;;;;;;3.33;2.10;;;30.20;50.80;;;;;;942517;148;27286;-77
2023/06/07 07:51:04;;;;;;;3.35;2.00;;;31.10;49.80;;;;;;941466;148;26262;-76
2023/06/07 07:53:31;;;;;;;1.75;1.65;;;32.10;49.20;;;;;;940225;148;26270;-76
2023/06/07 07:55:57;;;;;;;2.45;1.98;;;33.20;48.60;;;;;;938610;148;26198;-76
2023/06/07 07:58:25;;;;;;;3.17;2.30;;;34.20;47.30;;;;;;941573;148;26208;-76
2023/06/07 08:00:50;;;;;;;2.37;2.00;;;35.30;46.30;;;;;;941549;148;26152;-77
2023/06/07 08:03:17;;;;;;;2.85;2.20;;;36.30;45.30;;;;;;941107;148;26091;-77
2023/06/07 08:05:43;;;;;;;2.20;2.00;;;37.20;44.10;;;;;;941521;148;26549;-77
2023/06/07 08:08:10;;;;;;;3.12;2.17;;;38.10;42.90;;;;;;940864;148;26204;-77
2023/06/07 08:10:36;;;;;;;4.25;2.50;;;38.90;41.70;;;;;;942748;148;26207;-77
2023/06/07 08:13:03;;;;;;;2.05;1.95;;;39.40;40.00;;;;;;940949;148;26223;-77
2023/06/07 08:15:31;;;;;;;2.22;2.02;;;39.70;38.70;;;;;;941301;148;26268;-77
2023/06/07 08:17:56;;;;;;;3.08;2.30;;;39.80;37.50;;;;;;942591;148;26255;-77
2023/06/07 08:20:23;;;;;;;2.10;2.00;;;39.60;36.60;;;;;;938769;148;26210;-77
2023/06/07 08:22:53;;;;;;;2.55;2.35;;;39.40;36.20;;;;;;939968;148;26252;-77
2023/06/07 08:25:16;;;;;;;4.22;2.30;;;39.00;35.80;;;;;;940522;148;26158;-77
2023/06/07 08:27:42;;;;;;;3.85;2.08;;;38.60;35.00;;;;;;940760;148;26174;-77
2023/06/07 08:30:09;;;;;;;4.15;2.62;;;38.10;35.80;;;;;;940189;148;26352;-76
2023/06/07 08:32:36;;;;;;;2.47;2.27;;;37.60;36.00;;;;;;940871;148;27289;-77
2023/06/07 08:35:03;;;;;;;2.62;2.42;;;37.10;36.30;;;;;;938897;148;26172;-76
2023/06/07 08:37:29;;;;;;;3.87;2.27;;;36.70;36.30;;;;;;940386;148;27380;-76
2023/06/07 08:39:55;;;;;;;2.95;2.65;;;36.30;36.60;;;;;;940469;148;26229;-77
2023/06/07 08:42:22;;;;;;;3.17;2.42;;;35.90;37.00;;;;;;942298;148;27539;-77
2023/06/07 08:44:49;;;;;;;3.42;2.83;;;35.50;37.20;;;;;;940003;148;27263;-77
2023/06/07 08:47:15;;;;;;;2.83;2.62;;;35.30;37.60;;;;;;941313;148;27202;-77
2023/06/07 08:49:42;;;;;;;2.75;2.55;;;35.00;37.70;;;;;;939509;148;27240;-77
2023/06/07 08:52:08;;;;;;;3.15;2.95;;;34.90;37.90;;;;;;941023;148;27308;-77
2023/06/07 08:54:35;;;;;;;3.22;2.92;;;34.70;38.00;;;;;;940858;146;27341;-76
2023/06/07 08:57:01;;;;;;;3.80;2.75;;;34.50;38.00;;;;;;941163;148;27268;-76
2023/06/07 08:59:28;;;;;;;3.55;3.25;;;34.40;38.20;;;;;;940131;148;27286;-77
2023/06/07 09:01:55;;;;;;;3.50;3.20;;;34.20;38.20;;;;;;941824;148;27240;-77
2023/06/07 09:04:21;;;;;;;3.25;3.05;;;34.00;38.10;;;;;;940290;147;27628;-77
2023/06/07 09:06:48;;;;;;;5.42;3.60;;;33.80;38.30;;;;;;941929;148;27356;-77
2023/06/07 09:09:14;;;;;;;3.55;3.25;;;33.60;38.50;;;;;;941882;148;27398;-77
2023/06/07 09:11:41;;;;;;;3.22;3.02;;;33.50;38.70;;;;;;940361;148;27405;-77
2023/06/07 09:14:08;;;;;;;3.40;3.10;;;33.40;39.20;;;;;;943088;148;27259;-77
2023/06/07 09:16:35;;;;;;;3.62;2.75;;;33.40;39.30;;;;;;941969;148;27288;-77
2023/06/07 09:19:01;;;;;;;3.58;3.27;;;33.40;39.10;;;;;;937487;145;27346;-77
2023/06/07 09:21:27;;;;;;;3.20;2.90;;;33.30;38.90;;;;;;940414;148;27316;-77
2023/06/07 09:23:54;;;;;;;6.10;3.72;;;33.30;38.80;;;;;;941551;148;27222;-77
2023/06/07 09:26:22;;;;;;;3.70;3.20;;;33.10;38.80;;;;;;939937;148;27363;-77
2023/06/07 09:28:47;;;;;;;6.83;3.25;;;33.00;38.90;;;;;;941922;148;27335;-77
2023/06/07 09:31:14;;;;;;;3.67;3.35;;;32.80;38.90;;;;;;944815;148;27385;-77
2023/06/07 09:33:41;;;;;;;3.72;3.30;;;32.60;39.00;;;;;;942001;148;27342;-77
2023/06/07 09:36:10;;;;;;;3.75;3.35;;;32.50;39.30;;;;;;946678;148;27396;-77
2023/06/07 09:38:36;;;;;;;3.95;3.22;;;32.30;39.90;;;;;;946033;148;27338;-77
2023/06/07 09:41:03;;;;;;;3.50;3.30;;;32.20;39.30;;;;;;945850;148;27388;-77
2023/06/07 09:43:47;;;;;;;4.37;3.47;;;32.10;39.40;;;;;;945332;148;27375;-77
2023/06/07 09:46:14;;;;;;;5.47;3.30;;;31.90;39.50;;;;;;947338;148;27438;-77
2023/06/07 09:48:46;;;;;;;3.52;3.22;;;31.80;39.80;;;;;;946226;148;27399;-77
2023/06/07 09:51:13;;;;;;;14.15;4.50;;;31.70;39.90;;;;;;946546;148;27429;-77
2023/06/07 09:53:52;;;;;;;4.95;3.25;;;31.60;40.10;;;;;;945970;148;27295;-77
2023/06/07 09:56:18;;;;;;;3.33;3.12;;;31.60;40.30;;;;;;944798;148;27690;-78
2023/06/07 09:58:49;;;;;;;5.10;3.60;;;31.70;40.70;;;;;;946254;148;27394;-77
2023/06/07 10:01:14;;;;;;;4.20;3.65;;;31.80;40.80;;;;;;945954;148;27415;-78
2023/06/07 10:03:47;;;;;;;3.33;3.08;;;31.90;40.70;;;;;;943849;148;27461;-78
2023/06/07 10:06:13;;;;;;;4.10;3.70;;;32.00;40.60;;;;;;947837;148;27474;-78
2023/06/07 10:08:39;;;;;;;4.22;3.45;;;32.20;40.60;;;;;;947222;148;27372;-78
2023/06/07 10:11:06;;;;;;;3.87;3.25;;;32.30;40.80;;;;;;945504;148;27357;-78
2023/06/07 10:13:32;;;;;;;4.00;3.12;;;32.50;40.70;;;;;;948347;148;27394;-78
2023/06/07 10:15:59;;;;;;;4.17;3.15;;;32.80;40.40;;;;;;946362;148;27342;-78
2023/06/07 10:18:26;;;;;;;3.85;3.47;;;32.90;39.80;;;;;;944430;148;27457;-77
2023/06/07 10:20:59;;;;;;;3.72;3.45;;;33.00;39.70;;;;;;946985;148;27377;-78
2023/06/07 10:23:28;;;;;;;4.58;3.42;;;33.10;39.60;;;;;;943134;148;27370;-78
2023/06/07 10:25:54;;;;;;;4.62;3.15;;;33.20;39.60;;;;;;947661;148;27463;-78
2023/06/07 10:28:20;;;;;;;3.50;3.20;;;33.30;39.40;;;;;;945989;148;27437;-78
2023/06/07 10:30:50;;;;;;;3.40;3.20;;;33.30;39.20;;;;;;941277;148;27420;-77
2023/06/07 10:33:16;;;;;;;3.72;3.37;;;33.30;39.00;;;;;;943603;148;27469;-75
2023/06/07 10:35:43;;;;;;;3.50;3.20;;;33.30;39.00;;;;;;943598;148;27410;-75
2023/06/07 10:38:10;;;;;;;3.27;3.08;;;33.30;39.00;;;;;;945226;148;27508;-75
2023/06/07 10:40:36;;;;;;;3.87;3.42;;;33.20;38.70;;;;;;946539;148;27469;-75
2023/06/07 10:43:02;;;;;;;3.55;3.25;;;33.10;38.60;;;;;;946908;148;27340;-75
2023/06/07 10:45:29;;;;;;;3.90;3.60;;;32.90;38.50;;;;;;944972;148;27397;-75
2023/06/07 10:47:56;;;;;;;3.40;3.10;;;32.90;39.00;;;;;;945049;148;27473;-75
2023/06/07 10:50:30;;;;;;;3.60;3.30;;;32.70;39.30;;;;;;919179;153;27505;-75
2023/06/07 10:52:55;;;;;;;4.10;3.02;;;32.60;39.00;;;;;;945120;148;27337;-75
2023/06/07 10:55:26;;;;;;;4.87;3.15;;;32.50;39.20;;;;;;943583;148;27358;-75
2023/06/07 10:57:51;;;;;;;3.20;2.95;;;32.40;39.40;;;;;;943676;148;27788;-75
2023/06/07 11:00:30;;;;;;;3.00;2.80;;;32.30;39.50;;;;;;945472;148;27391;-75
2023/06/07 11:03:09;;;;;;;3.10;2.90;;;32.30;39.70;;;;;;944562;148;27407;-75
2023/06/07 11:05:54;;;;;;;3.17;2.98;;;32.30;39.90;;;;;;944520;148;27422;-75
2023/06/07 11:08:30;;;;;;;3.00;2.77;;;32.30;39.90;;;;;;947027;148;27328;-75
2023/06/07 11:11:00;;;;;;;3.10;2.90;;;32.20;39.70;;;;;;943695;148;27361;-75
2023/06/07 11:13:27;;;;;;;2.95;2.75;;;32.20;39.80;;;;;;947078;148;27569;-75
2023/06/07 11:15:54;;;;;;;2.55;2.42;;;32.20;39.90;;;;;;941911;147;27348;-75
2023/06/07 11:18:20;;;;;;;3.30;2.90;;;32.20;40.00;;;;;;940153;148;27267;-75
2023/06/07 11:20:49;;;;;;;3.40;3.10;;;32.30;40.00;;;;;;944993;148;27389;-75
2023/06/07 11:23:22;;;;;;;3.87;3.08;;;32.40;40.10;;;;;;945922;148;27489;-75
2023/06/07 11:25:46;;;;;;;2.90;2.70;;;32.40;40.00;;;;;;926996;153;27383;-75
2023/06/07 11:28:13;;;;;;;3.60;3.08;;;32.50;40.00;;;;;;928867;150;27759;-75
2023/06/07 11:30:42;;;;;;;3.05;2.85;;;32.60;40.10;;;;;;930195;153;27332;-75
2023/06/07 11:33:09;;;;;;;3.47;3.02;;;32.70;40.20;;;;;;931748;153;27856;-75
2023/06/07 11:35:35;;;;;;;2.87;2.67;;;32.90;40.30;;;;;;915702;153;27411;-75
2023/06/07 11:38:05;;;;;;;3.65;2.90;;;33.00;40.40;;;;;;931900;153;27656;-75
2023/06/07 11:40:31;;;;;;;3.02;2.80;;;33.10;40.00;;;;;;914217;153;27400;-75
2023/06/07 11:42:57;;;;;;;2.40;2.30;;;33.30;39.80;;;;;;915475;153;27419;-75
2023/06/07 11:53:47;;;;;;;2.92;2.72;;;33.00;38.60;;;;;;966533;145;36032;-74
2023/06/07 11:56:13;;;;;;;2.85;2.65;;;32.60;38.90;;;;;;954673;147;26229;-74
2023/06/07 11:58:40;;;;;;;3.27;2.65;;;32.40;39.10;;;;;;953226;148;27378;-74
2023/06/07 12:01:07;;;;;;;3.05;2.85;;;32.20;39.10;;;;;;951893;147;27405;-74
2023/06/07 12:03:33;;;;;;;2.58;2.40;;;32.00;39.10;;;;;;952098;147;27354;-73
2023/06/07 12:06:00;;;;;;;2.92;2.67;;;31.90;39.50;;;;;;950936;147;27788;-74
2023/06/07 12:08:29;;;;;;;2.40;2.30;;;31.80;39.80;;;;;;950183;148;27316;-74
2023/06/07 12:10:56;;;;;;;2.83;2.62;;;31.70;40.00;;;;;;951799;148;27365;-74
2023/06/07 12:13:22;;;;;;;2.47;2.27;;;31.70;40.10;;;;;;952308;147;27477;-74
2023/06/07 12:15:49;;;;;;;2.72;2.22;;;31.80;40.20;;;;;;952228;148;27401;-74
2023/06/07 12:18:16;;;;;;;2.30;2.20;;;31.80;40.20;;;;;;953385;147;27293;-74
2023/06/07 12:20:42;;;;;;;3.33;2.00;;;32.00;40.10;;;;;;950271;148;27269;-74
2023/06/07 12:23:08;;;;;;;2.30;2.20;;;32.00;40.00;;;;;;952720;148;27319;-74
2023/06/07 12:25:35;;;;;;;2.40;2.30;;;32.20;40.20;;;;;;953303;148;27408;-74
2023/06/07 12:28:13;;;;;;;2.02;1.92;;;32.30;39.60;;;;;;953465;148;27372;-74
2023/06/07 12:30:43;;;;;;;2.42;2.20;;;32.40;39.50;;;;;;949668;148;27356;-74
2023/06/07 12:33:15;;;;;;;3.77;2.35;;;32.50;39.40;;;;;;947602;148;27288;-74
2023/06/07 12:35:47;;;;;;;2.90;2.42;;;32.60;39.40;;;;;;947398;148;27344;-74
2023/06/07 12:38:14;;;;;;;4.30;2.20;;;32.70;39.20;;;;;;948696;148;27799;-74
2023/06/07 12:40:41;;;;;;;2.52;2.33;;;32.70;39.00;;;;;;947496;148;27351;-74
2023/06/07 12:43:07;;;;;;;2.95;2.37;;;32.80;39.00;;;;;;947988;148;27349;-74
2023/06/07 12:45:34;;;;;;;2.52;2.30;;;32.70;38.80;;;;;;951884;148;27439;-74
2023/06/07 12:48:00;;;;;;;3.17;2.37;;;32.70;38.70;;;;;;948722;148;27311;-74
2023/06/07 12:50:27;;;;;;;2.40;2.22;;;32.60;38.70;;;;;;947101;148;27379;-74
2023/06/07 12:52:53;;;;;;;2.50;2.30;;;32.60;38.70;;;;;;946319;148;27382;-74
2023/06/07 12:55:20;;;;;;;2.47;2.27;;;32.60;38.80;;;;;;945067;149;27460;-74